ADDS METAR Data INFO
IDs: Format: Raw Decoded Include TAF

Data at: 0246 UTC 21 Oct 2017

KZZV 210153Z AUTO 00000KT 10SM CLR 12/07 A3024 RMK AO2 SLP239 T01170067
KZZV 210053Z AUTO 00000KT 10SM CLR 13/06 A3023 RMK AO2 SLP236 T01330061
KZZV 202353Z AUTO 00000KT 10SM CLR 15/06 A3023 RMK AO2 SLP237 T01500061 10239 20144 55000
KZZV 202253Z AUTO 00000KT 10SM CLR 18/04 A3022 RMK AO2 SLP232 T01830044
KZZV 202153Z AUTO 00000KT 10SM CLR 22/04 A3021 RMK AO2 SLP230 T02220039
KZZV 202053Z AUTO 00000KT 10SM CLR 23/04 A3023 RMK AO2 SLP234 T02330039 56015
KZZV 201953Z AUTO 10004KT 10SM CLR 23/04 A3024 RMK AO2 SLP238 T02280044
KZZV 201853Z AUTO 00000KT 10SM CLR 23/06 A3026 RMK AO2 SLP243 T02280056
KZZV 201753Z AUTO 00000KT 10SM CLR 22/06 A3027 RMK AO2 SLP250 T02170056 10217 20061 58016
KZZV 201653Z AUTO 00000KT 10SM CLR 21/06 A3030 RMK AO2 SLP260 T02060056
KZZV 201553Z AUTO 00000KT 10SM CLR 18/11 A3031 RMK AO2 SLP262 T01830106
KZZV 201453Z AUTO 00000KT 10SM CLR 15/10 A3032 RMK AO2 SLP267 T01500100 50010
KZZV 201353Z AUTO 00000KT 10SM CLR 12/09 A3033 RMK AO2 SLP270 T01170094
KZZV 201253Z AUTO 00000KT 10SM CLR 08/07 A3031 RMK AO2 SLP265 T00830072
KZZV 201153Z AUTO 00000KT 7SM CLR 06/04 A3029 RMK AO2 SLP258 T00610044 10111 20061 51014
KZZV 201151Z AUTO 00000KT 6SM BR CLR 06/04 A3029 RMK AO2
KZZV 201142Z AUTO 00000KT 2SM BR CLR 06/05 A3029 RMK AO2 T00610050
KZZV 201056Z AUTO 00000KT 3SM BR CLR 07/06 A3027 RMK AO2 T00670056
KZZV 201053Z AUTO 00000KT 1 1/4SM BR CLR 07/06 A3027 RMK AO2 SLP250 T00670056
KZZV 201046Z AUTO 00000KT 1 1/2SM BR CLR 07/06 A3027 RMK AO2 VIS 1/2V5 T00720056
KZZV 200953Z AUTO 00000KT 9SM CLR 08/06 A3025 RMK AO2 SLP242 T00780061
KZZV 200853Z AUTO 00000KT 9SM CLR 09/08 A3024 RMK AO2 SLP237 T00890078 51005
KZZV 200753Z AUTO 00000KT 10SM CLR 09/08 A3023 RMK AO2 SLP235 T00940078
KZZV 200653Z AUTO 00000KT 10SM CLR 11/08 A3023 RMK AO2 SLP233 T01060083
KZZV 200553Z AUTO 00000KT 10SM CLR 11/08 A3022 RMK AO2 SLP231 T01060083 10172 20100 51006
KZZV 200453Z AUTO 00000KT 10SM CLR 11/08 A3022 RMK AO2 SLP230 T01110083 402220033
KZZV 200353Z AUTO 00000KT 10SM CLR 12/09 A3021 RMK AO2 SLP229 T01220089
KZZV 200253Z AUTO 21005KT 10SM CLR 15/09 A3020 RMK AO2 SLP225 T01500089 53003
KZZV 200153Z AUTO 21005KT 10SM CLR 14/09 A3020 RMK AO2 SLP225 T01440094
KZZV 200053Z AUTO 21004KT 10SM CLR 16/09 A3019 RMK AO2 SLP224 T01610089
KZZV 192353Z AUTO 21004KT 10SM CLR 17/09 A3019 RMK AO2 SLP224 T01720089 10222 20172 53006
KZZV 192253Z AUTO 20004KT 10SM CLR 18/09 A3018 RMK AO2 SLP220 T01830094
KZZV 192153Z AUTO 23005KT 10SM CLR 21/09 A3017 RMK AO2 SLP217 T02110089
KZZV 192053Z AUTO 24008KT 10SM CLR 22/09 A3017 RMK AO2 SLP216 T02220089 56012
KZZV 191953Z AUTO 23007KT 10SM CLR 22/09 A3018 RMK AO2 SLP221 T02170089
KZZV 191853Z AUTO 25012G17KT 10SM CLR 22/09 A3018 RMK AO2 SLP219 T02170089
KZZV 191753Z AUTO 22009KT 10SM CLR 21/09 A3021 RMK AO2 SLP228 T02110094 10211 20039 58014
KZZV 191653Z AUTO 24007KT 10SM CLR 20/09 A3022 RMK AO2 SLP234 T02000089
KZZV 191553Z AUTO 21009KT 10SM CLR 18/08 A3024 RMK AO2 SLP239 T01780083
KZZV 191453Z AUTO 22007KT 10SM CLR 16/08 A3025 RMK AO2 SLP243 T01560083 51011